Time;durP1;ratioP1;P1;durP2;ratioP2;P2;SDS_P1;SDS_P2;PMS_P1;PMS_P2;Temp;Humidity;BMP_temperature;BMP_pressure;BME280_temperature;BME280_humidity;BME280_pressure;Samples;Min_cycle;Max_cycle;Signal;HPM_P1;HPM_P2
2022/04/17 00:00:48;;;;;;;3.22;2.95;;;10.20;99.90;;;;;;5010429;28;20076;-70
2022/04/17 00:03:14;;;;;;;10.25;3.28;;;10.20;99.90;;;;;;5009392;28;20511;-70
2022/04/17 00:05:40;;;;;;;2.50;2.30;;;10.20;99.90;;;;;;5009002;28;20120;-72
2022/04/17 00:08:06;;;;;;;3.15;2.83;;;10.10;99.90;;;;;;5007642;28;20362;-71
2022/04/17 00:10:31;;;;;;;4.05;2.97;;;10.20;99.90;;;;;;5008333;28;20033;-72
2022/04/17 00:12:58;;;;;;;3.35;2.63;;;10.20;99.90;;;;;;5002339;28;20021;-71
2022/04/17 00:15:23;;;;;;;3.45;2.33;;;10.30;99.90;;;;;;5009042;28;20125;-70
2022/04/17 00:17:49;;;;;;;8.25;3.13;;;10.30;99.90;;;;;;5009567;28;20029;-70
2022/04/17 00:20:16;;;;;;;6.82;3.05;;;10.20;99.90;;;;;;5007072;28;20057;-71
2022/04/17 00:22:43;;;;;;;3.72;2.60;;;10.20;99.90;;;;;;5009122;28;20026;-72
2022/04/17 00:25:09;;;;;;;4.50;3.25;;;10.20;99.90;;;;;;5008156;28;20041;-70
2022/04/17 00:27:35;;;;;;;4.82;2.97;;;10.20;99.90;;;;;;5004362;28;20570;-71
2022/04/17 00:30:05;;;;;;;4.53;2.90;;;10.20;99.90;;;;;;5010219;28;20022;-71
2022/04/17 00:32:31;;;;;;;4.35;3.33;;;10.10;99.90;;;;;;5009105;28;20414;-72
2022/04/17 00:35:00;;;;;;;3.53;3.13;;;10.10;99.90;;;;;;5009478;28;20022;-71
2022/04/17 00:37:26;;;;;;;3.10;2.88;;;10.20;99.90;;;;;;5003701;28;20022;-71
2022/04/17 00:39:53;;;;;;;3.38;2.90;;;10.10;99.90;;;;;;5007384;28;20045;-71
2022/04/17 00:42:19;;;;;;;4.88;2.60;;;10.10;99.90;;;;;;5009929;28;20054;-71
2022/04/17 00:44:44;;;;;;;3.47;2.45;;;10.10;99.90;;;;;;5008610;28;20030;-71
2022/04/17 00:47:15;;;;;;;2.88;2.55;;;10.10;99.90;;;;;;5008258;28;20364;-70
2022/04/17 00:49:42;;;;;;;3.38;3.08;;;10.10;99.90;;;;;;5008446;28;20471;-70
2022/04/17 00:52:08;;;;;;;5.75;3.13;;;10.20;99.90;;;;;;5007537;28;20052;-69
2022/04/17 00:54:35;;;;;;;2.92;2.30;;;10.20;99.90;;;;;;5007646;28;20497;-70
2022/04/17 00:57:02;;;;;;;3.10;2.25;;;10.20;99.90;;;;;;5009071;28;20551;-70
2022/04/17 00:59:28;;;;;;;4.28;2.88;;;10.10;99.90;;;;;;5004419;28;20029;-70
2022/04/17 01:01:54;;;;;;;8.10;2.83;;;10.10;99.90;;;;;;5007942;28;20427;-70
2022/04/17 01:04:19;;;;;;;2.22;2.05;;;10.10;99.90;;;;;;5006842;28;20026;-71
2022/04/17 01:06:45;;;;;;;3.60;2.67;;;10.10;99.90;;;;;;5004641;28;20041;-71
2022/04/17 01:09:11;;;;;;;3.70;2.35;;;10.10;99.90;;;;;;5005922;28;20018;-71
2022/04/17 01:11:40;;;;;;;3.55;2.88;;;10.10;99.90;;;;;;5007763;28;20381;-70
2022/04/17 01:14:08;;;;;;;2.30;2.13;;;10.10;99.90;;;;;;5002787;28;20018;-71
2022/04/17 01:16:36;;;;;;;3.13;2.63;;;10.10;99.90;;;;;;5007757;28;20026;-71
2022/04/17 01:19:10;;;;;;;3.03;2.58;;;10.10;99.90;;;;;;5007317;28;20072;-71
2022/04/17 01:21:37;;;;;;;2.50;2.30;;;10.10;99.90;;;;;;5009556;28;20119;-70
2022/04/17 01:26:57;;;;;;;3.10;2.90;;;10.10;99.90;;;;;;5013047;28;20076;-71
2022/04/17 01:29:36;;;;;;;7.63;3.40;;;10.10;99.90;;;;;;5011384;28;20096;-70
2022/04/17 01:32:04;;;;;;;2.65;2.25;;;10.00;99.90;;;;;;5006553;28;20080;-69
2022/04/17 01:34:30;;;;;;;3.17;2.33;;;9.90;99.90;;;;;;5010541;28;20018;-70
2022/04/17 01:36:57;;;;;;;4.70;3.33;;;10.00;99.90;;;;;;5012396;28;20041;-71
2022/04/17 01:39:23;;;;;;;5.78;2.72;;;10.00;99.90;;;;;;5012291;28;20105;-71
2022/04/17 01:41:52;;;;;;;6.95;3.25;;;10.00;99.90;;;;;;5012066;28;20109;-70
2022/04/17 01:44:18;;;;;;;3.33;2.65;;;10.00;99.90;;;;;;5009995;28;20030;-70
2022/04/17 01:46:44;;;;;;;2.92;2.58;;;9.90;99.90;;;;;;5010088;28;20076;-71
2022/04/17 01:49:12;;;;;;;3.42;2.42;;;9.90;99.90;;;;;;5007232;28;20030;-71
2022/04/17 01:51:40;;;;;;;4.55;2.40;;;10.00;99.90;;;;;;5009725;28;20465;-70
2022/04/17 01:54:07;;;;;;;4.13;2.55;;;9.90;99.90;;;;;;5011347;28;20041;-70
2022/04/17 01:56:34;;;;;;;2.28;2.08;;;9.80;99.90;;;;;;5010808;28;20030;-71
2022/04/17 01:59:01;;;;;;;2.28;2.13;;;9.90;99.90;;;;;;5011003;28;20022;-70
2022/04/17 02:01:27;;;;;;;3.08;2.25;;;9.90;99.90;;;;;;5004334;28;20089;-70
2022/04/17 02:03:52;;;;;;;3.47;2.47;;;9.90;99.90;;;;;;5009056;28;20040;-70
2022/04/17 02:06:18;;;;;;;3.22;2.70;;;9.90;99.90;;;;;;5010523;28;20125;-70
2022/04/17 02:08:44;;;;;;;4.30;2.00;;;9.90;99.90;;;;;;5011297;28;20436;-70
2022/04/17 02:11:10;;;;;;;4.35;2.92;;;9.80;99.90;;;;;;5012124;28;20466;-71
2022/04/17 02:13:36;;;;;;;5.38;3.17;;;9.80;99.90;;;;;;5010145;28;20049;-70
2022/04/17 02:16:06;;;;;;;4.03;2.75;;;9.90;99.90;;;;;;5009105;28;20099;-71
2022/04/17 02:18:32;;;;;;;3.25;2.95;;;9.80;99.90;;;;;;5014598;28;20022;-71
2022/04/17 02:20:59;;;;;;;2.97;2.47;;;9.70;99.90;;;;;;5014243;28;20033;-72
2022/04/17 02:23:24;;;;;;;4.50;2.78;;;9.70;99.90;;;;;;5013092;28;20446;-72
2022/04/17 02:25:50;;;;;;;4.13;2.83;;;9.70;99.90;;;;;;5014518;28;20030;-71
2022/04/17 02:28:16;;;;;;;4.60;3.03;;;9.70;99.90;;;;;;5012709;28;20041;-72
2022/04/17 02:30:42;;;;;;;3.53;3.10;;;9.70;99.90;;;;;;5012531;28;20032;-71
2022/04/17 02:33:09;;;;;;;5.45;3.13;;;9.70;99.90;;;;;;5011888;28;20030;-72
2022/04/17 02:35:34;;;;;;;3.85;2.47;;;9.70;99.90;;;;;;5011744;28;20057;-70
2022/04/17 02:38:00;;;;;;;3.03;2.67;;;9.70;99.90;;;;;;5013803;28;20053;-71
2022/04/17 02:40:26;;;;;;;3.88;3.35;;;9.60;99.90;;;;;;5013051;28;20387;-72
2022/04/17 02:42:53;;;;;;;22.25;2.80;;;9.60;99.90;;;;;;5009506;28;20046;-70
2022/04/17 02:45:19;;;;;;;3.80;2.85;;;9.60;99.90;;;;;;5010692;28;20209;-72
2022/04/17 02:47:46;;;;;;;2.58;2.38;;;9.60;99.90;;;;;;5011305;28;20026;-70
2022/04/17 02:50:15;;;;;;;6.85;2.83;;;9.60;99.90;;;;;;5010809;28;20071;-71
2022/04/17 02:52:42;;;;;;;7.80;3.47;;;9.60;99.90;;;;;;5010027;28;20028;-71
2022/04/17 02:55:09;;;;;;;5.30;3.47;;;9.60;99.90;;;;;;5013039;28;20097;-70
2022/04/17 02:57:34;;;;;;;2.88;2.60;;;9.60;99.90;;;;;;5009381;28;20032;-71
2022/04/17 03:00:01;;;;;;;4.07;2.88;;;9.60;99.90;;;;;;5010259;28;20034;-71
2022/04/17 03:07:55;;;;;;;3.88;3.10;;;9.40;99.90;;;;;;5010319;28;20045;-71
2022/04/17 03:10:21;;;;;;;5.15;3.38;;;9.30;99.90;;;;;;5008436;28;20026;-70
2022/04/17 03:12:48;;;;;;;4.30;2.63;;;9.40;99.90;;;;;;5008426;28;20501;-70
2022/04/17 03:15:14;;;;;;;2.78;2.53;;;9.30;99.90;;;;;;5011215;28;20026;-71
2022/04/17 03:17:39;;;;;;;3.45;2.85;;;9.30;99.90;;;;;;5011685;28;20030;-72
2022/04/17 03:20:07;;;;;;;4.22;3.22;;;9.30;99.90;;;;;;5011329;28;20034;-71
2022/04/17 03:22:33;;;;;;;4.95;3.65;;;9.30;99.90;;;;;;5011200;28;20029;-71
2022/04/17 03:25:04;;;;;;;4.05;3.53;;;9.20;99.90;;;;;;5006373;28;20026;-71
2022/04/17 03:27:30;;;;;;;9.60;3.83;;;9.20;99.90;;;;;;5001756;28;20022;-70
2022/04/17 03:29:56;;;;;;;3.22;3.00;;;9.20;99.90;;;;;;5009829;28;20144;-70
2022/04/17 03:32:22;;;;;;;4.47;3.53;;;9.20;99.90;;;;;;5011165;28;20316;-70
2022/04/17 03:34:48;;;;;;;2.70;2.35;;;9.20;99.90;;;;;;5011462;28;20096;-70
2022/04/17 03:37:14;;;;;;;5.63;3.53;;;9.20;99.90;;;;;;5009985;28;20029;-71
2022/04/17 03:39:41;;;;;;;4.45;4.00;;;9.20;99.90;;;;;;5000511;28;20034;-70
2022/04/17 03:42:07;;;;;;;9.05;5.65;;;9.20;99.90;;;;;;5009451;28;20050;-71
2022/04/17 03:44:36;;;;;;;4.43;3.03;;;9.10;99.90;;;;;;5010015;28;20061;-70
2022/04/17 03:47:02;;;;;;;3.75;3.45;;;9.10;99.90;;;;;;5010956;28;20026;-70
2022/04/17 03:49:29;;;;;;;6.20;3.95;;;9.20;99.90;;;;;;5002464;28;20562;-70
2022/04/17 03:51:55;;;;;;;4.22;3.08;;;9.30;99.90;;;;;;5008301;28;20092;-71
2022/04/17 03:54:21;;;;;;;3.03;2.65;;;9.20;99.90;;;;;;5009368;28;20462;-70
2022/04/17 03:56:47;;;;;;;5.38;3.42;;;9.20;99.90;;;;;;5010561;28;20030;-72
2022/04/17 03:59:23;;;;;;;12.30;3.17;;;9.20;99.90;;;;;;5009503;28;20052;-71
2022/04/17 04:01:48;;;;;;;4.38;3.65;;;9.10;99.90;;;;;;5008119;28;20030;-70
2022/04/17 04:04:15;;;;;;;3.72;2.88;;;9.20;99.90;;;;;;5006734;28;20152;-70
2022/04/17 04:06:41;;;;;;;3.65;3.03;;;9.10;99.90;;;;;;5007873;28;20037;-70
2022/04/17 04:09:07;;;;;;;3.85;3.55;;;9.10;99.90;;;;;;5023221;28;20025;-71
2022/04/17 04:11:33;;;;;;;4.40;3.13;;;9.20;99.90;;;;;;5009163;28;20022;-70
2022/04/17 04:13:59;;;;;;;6.28;2.88;;;9.20;99.90;;;;;;5008989;28;20029;-72
2022/04/17 04:16:25;;;;;;;4.30;2.70;;;9.20;99.90;;;;;;5009156;28;20477;-70
2022/04/17 04:18:51;;;;;;;8.25;3.70;;;9.10;99.90;;;;;;5007354;28;20045;-70
2022/04/17 04:21:17;;;;;;;3.85;3.45;;;9.20;99.90;;;;;;5007181;28;20026;-70
2022/04/17 04:23:43;;;;;;;8.23;3.83;;;9.10;99.90;;;;;;5010230;28;20109;-70
2022/04/17 04:26:08;;;;;;;3.83;3.00;;;9.10;99.90;;;;;;5009163;28;20037;-71
2022/04/17 04:28:36;;;;;;;4.20;3.30;;;9.10;99.90;;;;;;5009668;28;20026;-71
2022/04/17 04:31:07;;;;;;;7.25;3.47;;;9.10;99.90;;;;;;5008982;28;20029;-70
2022/04/17 04:33:42;;;;;;;5.43;3.40;;;9.20;99.90;;;;;;5017809;28;20021;-71
2022/04/17 04:36:11;;;;;;;7.38;3.30;;;9.10;99.90;;;;;;5016176;28;20040;-71
2022/04/17 04:38:37;;;;;;;5.15;3.80;;;9.00;99.90;;;;;;5013017;28;20096;-71
2022/04/17 04:41:06;;;;;;;5.53;3.85;;;9.10;99.90;;;;;;5014141;28;20026;-71
2022/04/17 04:43:32;;;;;;;4.88;3.65;;;9.00;99.90;;;;;;5013616;28;20045;-70
2022/04/17 04:46:07;;;;;;;3.45;3.13;;;9.00;99.90;;;;;;5011021;28;20026;-71
2022/04/17 04:51:23;;;;;;;9.40;4.57;;;8.90;99.90;;;;;;5013510;28;20033;-71
2022/04/17 04:53:49;;;;;;;6.80;3.72;;;9.00;99.90;;;;;;5010162;28;20497;-71
2022/04/17 04:56:16;;;;;;;3.55;3.22;;;9.00;99.90;;;;;;5004132;28;20029;-71
2022/04/17 04:58:43;;;;;;;4.47;3.50;;;9.00;99.90;;;;;;5014565;28;20382;-70
2022/04/17 05:01:09;;;;;;;10.95;3.67;;;9.00;99.90;;;;;;5011470;28;20109;-71
2022/04/17 05:03:35;;;;;;;7.22;4.30;;;9.00;99.90;;;;;;5011133;28;20120;-70
2022/04/17 05:06:01;;;;;;;8.57;3.63;;;9.00;99.90;;;;;;5011452;28;20038;-70
2022/04/17 05:08:27;;;;;;;4.22;3.17;;;9.10;99.90;;;;;;5011681;28;20125;-71
2022/04/17 05:10:53;;;;;;;3.60;3.13;;;9.10;99.90;;;;;;5014797;28;20057;-71
2022/04/17 05:13:19;;;;;;;5.03;3.70;;;9.20;99.90;;;;;;5014956;28;20072;-70
2022/04/17 05:15:45;;;;;;;2.85;2.65;;;9.30;99.90;;;;;;5011840;28;20019;-70
2022/04/17 05:18:10;;;;;;;5.10;3.05;;;9.20;99.90;;;;;;5010630;28;20117;-71
2022/04/17 05:20:36;;;;;;;5.75;3.40;;;9.10;99.90;;;;;;5011277;28;20146;-70
2022/04/17 05:23:22;;;;;;;4.13;3.47;;;9.20;99.90;;;;;;5013283;28;20080;-70
2022/04/17 05:25:51;;;;;;;3.47;3.17;;;9.20;99.90;;;;;;5011814;28;20026;-71
2022/04/17 05:28:17;;;;;;;7.88;3.67;;;9.20;99.90;;;;;;5009898;28;20038;-70
2022/04/17 05:30:44;;;;;;;3.90;3.40;;;9.20;99.90;;;;;;5012243;28;20568;-70
2022/04/17 05:33:10;;;;;;;4.55;2.28;;;9.30;99.90;;;;;;5007595;28;20026;-69
2022/04/17 05:35:36;;;;;;;2.83;2.53;;;9.20;99.90;;;;;;5005173;28;20026;-71
2022/04/17 05:38:03;;;;;;;4.18;3.03;;;9.20;99.90;;;;;;5013094;28;20037;-71
2022/04/17 05:40:33;;;;;;;5.90;2.92;;;9.40;99.90;;;;;;5011336;28;20026;-71
2022/04/17 05:42:59;;;;;;;4.10;3.25;;;9.40;99.90;;;;;;5007837;28;20044;-70
2022/04/17 05:45:26;;;;;;;6.72;2.22;;;9.40;99.90;;;;;;5011753;28;20036;-72
2022/04/17 05:47:52;;;;;;;6.55;3.15;;;9.40;99.90;;;;;;5009677;28;20030;-70
2022/04/17 05:50:18;;;;;;;4.32;3.22;;;9.40;99.90;;;;;;5011825;28;20497;-71
2022/04/17 05:52:44;;;;;;;4.55;3.05;;;9.60;99.90;;;;;;5011654;28;20080;-71
2022/04/17 05:55:11;;;;;;;4.53;3.22;;;9.60;99.90;;;;;;5013336;28;20438;-70
2022/04/17 05:57:37;;;;;;;6.80;4.63;;;9.60;99.90;;;;;;5011141;28;20022;-70
2022/04/17 06:00:08;;;;;;;4.78;3.10;;;9.80;99.90;;;;;;5008048;28;20030;-70
2022/04/17 06:02:38;;;;;;;3.07;2.80;;;9.80;99.90;;;;;;5011137;28;20076;-71
2022/04/17 06:05:05;;;;;;;3.42;2.78;;;9.70;99.90;;;;;;5010219;28;20084;-71
2022/04/17 06:07:32;;;;;;;3.83;3.28;;;9.70;99.90;;;;;;5009106;28;20113;-71
2022/04/17 06:10:08;;;;;;;3.97;3.13;;;9.70;99.90;;;;;;5006818;28;20029;-71
2022/04/17 06:12:35;;;;;;;5.32;3.20;;;9.70;99.90;;;;;;5013664;28;20034;-71
2022/04/17 06:15:02;;;;;;;7.22;3.08;;;9.70;99.90;;;;;;5012987;28;20053;-72
2022/04/17 06:17:27;;;;;;;7.07;3.13;;;9.60;99.90;;;;;;5009002;28;20507;-71
2022/04/17 06:19:53;;;;;;;3.50;3.15;;;9.70;99.90;;;;;;5009288;28;20045;-71
2022/04/17 06:22:19;;;;;;;3.00;2.67;;;9.80;99.90;;;;;;5012759;28;20026;-71
2022/04/17 06:24:45;;;;;;;8.88;2.75;;;9.80;99.90;;;;;;5010210;28;20072;-72
2022/04/17 06:27:10;;;;;;;8.00;3.65;;;9.70;99.90;;;;;;5009349;28;20037;-66
2022/04/17 06:29:36;;;;;;;4.22;3.50;;;9.80;99.90;;;;;;5009048;28;20389;-65
2022/04/17 06:32:02;;;;;;;7.88;2.72;;;9.80;99.90;;;;;;5012197;28;20037;-67
2022/04/17 06:34:28;;;;;;;4.28;3.38;;;9.80;99.90;;;;;;5010149;28;20729;-66
2022/04/17 06:36:54;;;;;;;4.03;2.75;;;9.90;99.90;;;;;;5010480;28;20089;-66
2022/04/17 06:39:20;;;;;;;4.35;3.95;;;10.00;99.90;;;;;;5010718;28;20050;-66
2022/04/17 06:41:45;;;;;;;5.68;3.00;;;10.00;99.90;;;;;;5008503;28;20038;-68
2022/04/17 06:44:12;;;;;;;5.57;4.28;;;10.10;99.90;;;;;;5004663;28;20089;-67
2022/04/17 06:46:39;;;;;;;7.72;3.03;;;10.00;99.90;;;;;;5005089;28;20029;-67
2022/04/17 06:49:06;;;;;;;2.47;1.90;;;10.00;99.90;;;;;;5008104;28;20157;-67
2022/04/17 06:51:32;;;;;;;11.93;3.63;;;10.10;99.90;;;;;;5008171;28;20033;-67
2022/04/17 06:53:57;;;;;;;5.53;3.22;;;10.20;99.90;;;;;;4999957;28;20105;-66
2022/04/17 06:56:23;;;;;;;3.80;3.40;;;10.20;99.90;;;;;;5011559;28;20030;-68
2022/04/17 06:58:49;;;;;;;2.70;2.50;;;10.30;99.90;;;;;;5009313;28;20185;-67
2022/04/17 07:01:15;;;;;;;5.25;3.25;;;10.20;99.90;;;;;;5009611;28;20489;-67
2022/04/17 07:03:42;;;;;;;3.28;2.95;;;10.10;99.90;;;;;;5004479;28;20029;-67
2022/04/17 07:06:08;;;;;;;5.93;5.35;;;10.20;99.90;;;;;;5010327;28;20041;-67
2022/04/17 07:08:34;;;;;;;6.65;3.15;;;10.20;99.90;;;;;;5006699;28;20034;-67
2022/04/17 07:10:59;;;;;;;3.75;2.65;;;10.40;99.90;;;;;;5008265;28;20021;-68
2022/04/17 07:13:26;;;;;;;5.47;3.13;;;10.50;99.90;;;;;;5007333;28;20117;-68
2022/04/17 07:15:52;;;;;;;8.85;5.05;;;10.40;99.90;;;;;;5003670;28;20041;-68
2022/04/17 07:18:18;;;;;;;4.80;3.05;;;10.50;99.90;;;;;;5003147;28;20048;-67
2022/04/17 07:20:44;;;;;;;3.50;3.05;;;10.40;99.90;;;;;;5008704;28;20088;-68
2022/04/17 07:23:10;;;;;;;5.72;3.05;;;10.40;99.90;;;;;;5005013;28;20066;-68
2022/04/17 07:25:36;;;;;;;9.80;2.70;;;10.30;99.90;;;;;;5001525;28;20129;-68
2022/04/17 07:28:03;;;;;;;3.85;2.55;;;10.50;99.90;;;;;;5002054;28;20101;-67
2022/04/17 07:30:33;;;;;;;2.83;2.58;;;10.50;99.90;;;;;;5001833;28;20395;-68
2022/04/17 07:33:00;;;;;;;3.67;2.58;;;10.50;99.90;;;;;;5008046;28;20022;-68
2022/04/17 07:35:28;;;;;;;3.65;2.50;;;10.60;99.90;;;;;;5008434;28;20030;-68
2022/04/17 07:37:58;;;;;;;4.35;2.30;;;10.60;99.90;;;;;;5008385;28;20052;-68
2022/04/17 07:40:26;;;;;;;3.15;2.67;;;10.70;99.90;;;;;;5007118;28;20030;-68
2022/04/17 07:42:58;;;;;;;3.78;2.70;;;10.70;99.90;;;;;;5008142;28;20038;-69
2022/04/17 07:45:24;;;;;;;13.57;2.72;;;10.70;99.90;;;;;;5004969;28;20025;-68
2022/04/17 07:47:50;;;;;;;4.82;2.88;;;10.80;99.90;;;;;;5002662;28;20033;-68
2022/04/17 07:50:21;;;;;;;7.32;3.28;;;10.80;99.90;;;;;;5004497;28;20042;-68
2022/04/17 07:52:47;;;;;;;4.25;2.63;;;11.00;99.90;;;;;;5006606;28;20029;-67
2022/04/17 07:55:15;;;;;;;3.88;2.42;;;11.00;99.90;;;;;;5002548;28;20156;-68
2022/04/17 07:57:59;;;;;;;2.83;2.47;;;11.20;99.90;;;;;;5004818;28;20040;-67
2022/04/17 08:00:27;;;;;;;4.90;3.17;;;11.10;99.90;;;;;;5003939;28;20204;-68
2022/04/17 08:03:07;;;;;;;3.22;2.92;;;11.40;99.90;;;;;;5006518;28;20033;-67
2022/04/17 08:05:40;;;;;;;2.92;2.33;;;11.40;99.50;;;;;;5001485;28;20041;-68
2022/04/17 08:08:08;;;;;;;3.63;3.20;;;11.10;99.20;;;;;;5006201;28;20029;-68
2022/04/17 08:10:35;;;;;;;9.93;3.45;;;11.30;99.90;;;;;;5011723;28;20623;-67
2022/04/17 08:13:01;;;;;;;10.98;2.60;;;11.50;99.50;;;;;;5005417;28;20113;-66
2022/04/17 08:15:27;;;;;;;3.78;3.25;;;11.40;98.60;;;;;;5005611;28;20426;-68
2022/04/17 08:17:53;;;;;;;3.45;2.25;;;11.40;99.00;;;;;;5009923;28;20126;-67
2022/04/17 08:20:20;;;;;;;3.85;3.50;;;11.70;98.80;;;;;;5010235;28;20034;-68
2022/04/17 08:22:46;;;;;;;2.38;2.10;;;11.80;98.00;;;;;;5010623;28;20045;-67
2022/04/17 08:25:12;;;;;;;7.80;2.78;;;11.70;98.30;;;;;;5008545;28;20030;-66
2022/04/17 08:27:52;;;;;;;2.28;1.90;;;11.70;98.20;;;;;;5009606;28;20022;-67
2022/04/17 08:30:26;;;;;;;4.18;2.58;;;11.60;97.30;;;;;;5007584;28;20030;-68
2022/04/17 08:32:52;;;;;;;2.53;2.33;;;11.60;97.60;;;;;;5018157;28;20498;-68
2022/04/17 08:35:18;;;;;;;3.88;3.08;;;11.90;97.50;;;;;;5017051;28;20039;-68
2022/04/17 08:37:44;;;;;;;3.75;2.33;;;11.80;97.30;;;;;;5016625;28;20025;-67
2022/04/17 08:40:11;;;;;;;3.72;2.65;;;11.80;97.20;;;;;;5012483;28;20454;-67
2022/04/17 08:42:37;;;;;;;3.42;2.83;;;12.00;97.80;;;;;;5015498;28;20048;-66
2022/04/17 08:45:04;;;;;;;5.13;4.03;;;12.10;97.90;;;;;;5019053;28;20031;-68
2022/04/17 08:47:30;;;;;;;6.57;2.67;;;12.10;97.90;;;;;;5014573;28;20025;-68
2022/04/17 08:49:56;;;;;;;3.67;2.22;;;12.30;98.00;;;;;;5015239;28;20069;-67
2022/04/17 08:52:22;;;;;;;6.82;3.17;;;12.30;96.70;;;;;;5016495;28;20064;-66
2022/04/17 08:54:50;;;;;;;3.08;2.35;;;12.10;97.10;;;;;;5015775;28;20022;-67
2022/04/17 08:57:20;;;;;;;4.40;3.35;;;12.10;97.60;;;;;;5015580;28;20510;-67
2022/04/17 08:59:46;;;;;;;5.80;2.15;;;12.20;97.60;;;;;;5014724;28;20025;-67
2022/04/17 09:02:13;;;;;;;6.45;3.20;;;12.20;96.70;;;;;;5014427;28;20072;-66
2022/04/17 09:04:42;;;;;;;3.25;2.95;;;12.30;97.60;;;;;;5015125;28;20021;-66
2022/04/17 09:07:11;;;;;;;5.82;3.28;;;12.50;96.80;;;;;;5016527;28;20022;-66
2022/04/17 09:09:50;;;;;;;5.25;2.83;;;12.60;96.30;;;;;;5015771;28;20096;-67
2022/04/17 09:12:22;;;;;;;4.60;2.60;;;12.30;96.30;;;;;;5014642;28;20058;-66
2022/04/17 09:14:48;;;;;;;;;;;12.50;96.40;;;;;;5016108;28;20018;-67
2022/04/17 09:17:15;;;;;;;9.75;3.28;;;12.70;97.00;;;;;;5014154;28;20369;-66
2022/04/17 09:19:41;;;;;;;5.60;2.33;;;12.50;96.30;;;;;;5017821;28;20026;-67
2022/04/17 09:22:09;;;;;;;7.65;2.63;;;12.60;96.30;;;;;;5016879;28;20057;-65
2022/04/17 09:24:37;;;;;;;3.97;2.60;;;12.90;96.10;;;;;;5016084;28;20025;-67
2022/04/17 09:27:03;;;;;;;3.90;3.60;;;12.90;95.90;;;;;;5016359;28;20072;-67
2022/04/17 09:29:36;;;;;;;3.97;2.35;;;12.70;96.00;;;;;;5016676;28;20098;-67
2022/04/17 09:32:04;;;;;;;;;;;12.70;96.30;;;;;;5016401;28;20113;-66
2022/04/17 09:34:42;;;;;;;3.55;2.75;;;12.70;96.30;;;;;;5016646;28;19916;-66
2022/04/17 09:37:16;;;;;;;3.55;2.90;;;12.60;96.20;;;;;;5016547;28;20086;-68
2022/04/17 09:39:43;;;;;;;2.28;2.17;;;12.70;97.10;;;;;;5011242;28;20037;-65
2022/04/17 09:42:09;;;;;;;3.20;2.90;;;13.10;96.60;;;;;;5013933;28;20026;-65
2022/04/17 09:44:49;;;;;;;3.30;2.95;;;13.00;96.20;;;;;;5011811;28;20026;-66
2022/04/17 09:47:20;;;;;;;3.83;2.60;;;12.80;95.70;;;;;;5013240;28;20026;-65
2022/04/17 09:49:58;;;;;;;6.28;3.25;;;12.80;95.70;;;;;;5013215;28;20026;-66
2022/04/17 09:52:31;;;;;;;6.72;2.63;;;12.50;95.90;;;;;;5012933;28;20022;-65
2022/04/17 09:54:59;;;;;;;4.53;2.83;;;12.90;96.40;;;;;;5013735;28;20022;-66
2022/04/17 09:57:31;;;;;;;3.45;3.15;;;12.90;96.30;;;;;;5009776;28;20033;-66
2022/04/17 10:00:08;;;;;;;12.63;3.60;;;12.70;96.20;;;;;;5007719;28;20057;-66
2022/04/17 10:02:35;;;;;;;5.40;3.13;;;12.70;97.00;;;;;;5013281;28;20030;-67
2022/04/17 10:05:03;;;;;;;4.18;2.97;;;13.10;97.10;;;;;;5011202;28;20029;-65
2022/04/17 10:07:30;;;;;;;5.10;3.20;;;13.30;96.70;;;;;;5013122;28;20030;-66
2022/04/17 10:09:56;;;;;;;3.20;2.90;;;13.10;96.60;;;;;;5013012;28;20030;-66
2022/04/17 10:12:22;;;;;;;5.60;3.13;;;13.00;96.60;;;;;;5012949;28;20029;-66
2022/04/17 10:14:52;;;;;;;4.25;2.80;;;13.10;96.60;;;;;;5029966;28;20021;-66
2022/04/17 10:17:21;;;;;;;3.60;2.80;;;12.90;96.50;;;;;;5032646;28;20108;-66
2022/04/17 10:19:49;;;;;;;8.20;3.17;;;13.00;97.20;;;;;;5012105;28;20033;-66
2022/04/17 10:22:18;;;;;;;4.85;3.10;;;13.30;97.10;;;;;;4994544;28;20030;-67
2022/04/17 10:24:52;;;;;;;5.38;3.72;;;13.20;96.60;;;;;;5011131;28;20026;-66
2022/04/17 10:27:23;;;;;;;3.67;3.38;;;13.20;96.80;;;;;;5013344;28;20025;-66
2022/04/17 10:30:10;;;;;;;3.73;3.20;;;13.40;96.80;;;;;;5013179;28;20096;-66
2022/04/17 10:32:51;;;;;;;3.60;2.95;;;13.30;96.60;;;;;;5032458;28;20516;-67
2022/04/17 10:35:27;;;;;;;3.47;2.50;;;13.20;97.50;;;;;;5031215;28;20022;-66
2022/04/17 10:38:11;;;;;;;3.58;3.28;;;13.40;97.10;;;;;;5016156;28;20111;-67
2022/04/17 10:40:37;;;;;;;4.20;3.78;;;13.40;96.00;;;;;;5012076;28;20109;-66
2022/04/17 10:43:05;;;;;;;6.90;3.17;;;13.10;96.10;;;;;;5013069;28;20472;-65
2022/04/17 10:45:31;;;;;;;7.95;4.35;;;13.20;97.10;;;;;;5014609;28;20075;-66
2022/04/17 10:48:05;;;;;;;4.60;3.15;;;13.30;96.90;;;;;;5024266;28;20022;-66
2022/04/17 10:50:40;;;;;;;8.45;3.30;;;13.20;96.40;;;;;;5035145;28;20100;-67
2022/04/17 10:53:25;;;;;;;8.25;3.35;;;13.40;96.80;;;;;;5027171;28;20030;-66
2022/04/17 10:56:02;;;;;;;6.57;3.70;;;13.40;96.70;;;;;;5014916;28;20018;-66
2022/04/17 10:58:51;;;;;;;3.90;3.13;;;13.50;96.50;;;;;;5009956;28;20026;-66
2022/04/17 11:01:40;;;;;;;5.00;3.47;;;13.30;96.60;;;;;;5010344;28;20025;-66
2022/04/17 11:04:16;;;;;;;4.65;3.50;;;13.40;97.20;;;;;;5010522;28;20387;-65
2022/04/17 11:06:42;;;;;;;4.75;3.17;;;13.90;97.30;;;;;;5012543;28;20497;-65
2022/04/17 11:09:24;;;;;;;3.42;3.03;;;14.00;96.20;;;;;;5011354;28;20427;-66
2022/04/17 11:11:50;;;;;;;;;;;13.80;96.30;;;;;;5011681;28;20394;-67
2022/04/17 11:14:19;;;;;;;4.10;3.15;;;13.80;96.20;;;;;;5011337;28;19921;-66
2022/04/17 11:16:51;;;;;;;7.18;2.90;;;13.50;96.50;;;;;;5010233;28;20026;-64
2022/04/17 11:19:22;;;;;;;6.32;3.67;;;13.30;96.50;;;;;;5009287;28;20026;-66
2022/04/17 11:21:50;;;;;;;5.30;2.80;;;13.50;96.80;;;;;;5010327;28;20493;-66
2022/04/17 11:24:16;;;;;;;6.07;2.70;;;13.20;96.50;;;;;;5010299;28;20037;-66
2022/04/17 11:26:54;;;;;;;5.60;3.53;;;13.30;96.90;;;;;;5010520;28;20025;-66
2022/04/17 11:29:48;;;;;;;3.50;2.42;;;13.40;96.80;;;;;;5009370;28;20025;-65
2022/04/17 11:32:17;;;;;;;7.82;3.50;;;13.70;96.80;;;;;;5010231;28;20030;-66
2022/04/17 11:34:43;;;;;;;6.40;2.53;;;13.90;96.80;;;;;;5010549;28;20160;-66
2022/04/17 11:37:10;;;;;;;2.88;2.22;;;14.00;96.50;;;;;;5010436;28;20060;-66
2022/04/17 11:39:39;;;;;;;3.47;3.17;;;13.90;96.30;;;;;;5011923;28;20069;-66
2022/04/17 11:42:07;;;;;;;3.85;3.10;;;14.00;96.20;;;;;;5009731;28;20079;-66
2022/04/17 11:44:33;;;;;;;4.93;2.95;;;13.90;96.10;;;;;;5009585;28;20029;-67
2022/04/17 11:46:59;;;;;;;3.88;2.85;;;14.00;95.80;;;;;;5008448;28;20036;-65
2022/04/17 11:49:25;;;;;;;8.52;3.08;;;13.90;95.90;;;;;;5012906;28;20152;-67
2022/04/17 11:51:51;;;;;;;7.22;2.88;;;13.60;95.80;;;;;;5010152;28;20073;-67
2022/04/17 11:54:30;;;;;;;7.30;2.90;;;13.80;95.80;;;;;;5009800;28;20030;-66
2022/04/17 11:56:56;;;;;;;6.47;3.45;;;13.90;96.30;;;;;;5009854;28;20026;-66
2022/04/17 11:59:23;;;;;;;5.38;2.13;;;13.80;95.60;;;;;;5008133;28;20017;-67
2022/04/17 12:02:10;;;;;;;7.68;2.28;;;13.90;96.00;;;;;;5008991;28;20026;-66
2022/04/17 12:04:36;;;;;;;2.70;2.50;;;14.10;95.90;;;;;;5009212;28;20014;-66
2022/04/17 12:07:02;;;;;;;11.25;2.42;;;14.10;95.80;;;;;;5009602;28;20030;-66
2022/04/17 12:09:28;;;;;;;6.53;2.60;;;14.40;96.30;;;;;;5011248;28;20131;-67
2022/04/17 12:11:54;;;;;;;4.00;2.92;;;14.60;95.90;;;;;;5011546;28;20565;-66
2022/04/17 12:14:30;;;;;;;7.20;2.70;;;14.70;95.40;;;;;;5010809;28;20478;-66
2022/04/17 12:16:56;;;;;;;13.13;2.92;;;14.80;95.50;;;;;;5009813;28;20478;-66
2022/04/17 12:19:22;;;;;;;4.47;2.08;;;14.30;95.10;;;;;;5009419;28;20030;-65
2022/04/17 12:21:51;;;;;;;5.28;2.45;;;14.20;95.10;;;;;;5010753;28;20544;-66
2022/04/17 12:24:17;;;;;;;3.25;2.25;;;14.50;95.70;;;;;;5011000;28;20113;-66
2022/04/17 12:26:44;;;;;;;3.22;2.95;;;14.70;94.20;;;;;;5010959;28;20100;-66
2022/04/17 12:29:10;;;;;;;3.13;2.30;;;14.60;94.70;;;;;;5008451;28;20386;-66
2022/04/17 12:31:36;;;;;;;7.40;2.15;;;14.90;94.50;;;;;;5010517;28;20041;-66
2022/04/17 12:34:19;;;;;;;3.13;2.05;;;14.80;94.50;;;;;;5009678;28;20109;-67
2022/04/17 12:36:49;;;;;;;4.03;2.88;;;14.80;95.10;;;;;;5009571;28;20293;-66
2022/04/17 12:39:15;;;;;;;3.83;2.40;;;14.80;94.50;;;;;;5010526;28;20447;-66
2022/04/17 12:41:49;;;;;;;5.05;2.13;;;14.70;94.30;;;;;;5009708;28;20018;-66
2022/04/17 12:44:30;;;;;;;5.57;2.17;;;14.80;94.20;;;;;;5010313;28;20095;-66
2022/04/17 12:47:14;;;;;;;2.08;1.92;;;14.90;94.60;;;;;;5009153;28;20314;-66
2022/04/17 12:49:40;;;;;;;10.13;2.25;;;14.80;94.00;;;;;;5008658;28;20128;-66
2022/04/17 12:52:07;;;;;;;6.38;2.78;;;14.80;93.90;;;;;;5009921;28;20036;-66
2022/04/17 12:54:34;;;;;;;3.38;2.42;;;14.70;93.80;;;;;;5004783;28;20038;-65
2022/04/17 12:57:10;;;;;;;4.88;3.25;;;15.00;93.60;;;;;;5010239;28;20030;-65
2022/04/17 12:59:49;;;;;;;3.28;2.15;;;15.20;93.30;;;;;;4989257;28;20531;-66
2022/04/17 13:02:16;;;;;;;10.48;2.60;;;15.00;93.20;;;;;;5005713;28;20050;-66
2022/04/17 13:04:44;;;;;;;4.05;2.60;;;15.20;93.80;;;;;;5026578;28;20097;-66
2022/04/17 13:07:13;;;;;;;4.30;2.58;;;15.20;93.40;;;;;;5029701;28;20100;-66